sensor_id;sensor_type;location;lat;lon;timestamp;P1;durP1;ratioP1;P2;durP2;ratioP2
81382;SDS011;70834;37.534;-122.308;2023-11-19T00:02:07;15.32;;;2.63;;
81382;SDS011;70834;37.534;-122.308;2023-11-19T00:04:29;17.13;;;3.15;;
81382;SDS011;70834;37.534;-122.308;2023-11-19T00:06:50;16.90;;;3.33;;
81382;SDS011;70834;37.534;-122.308;2023-11-19T00:09:12;16.33;;;2.70;;
81382;SDS011;70834;37.534;-122.308;2023-11-19T00:11:33;20.15;;;3.33;;
81382;SDS011;70834;37.534;-122.308;2023-11-19T00:13:54;17.30;;;2.20;;
81382;SDS011;70834;37.534;-122.308;2023-11-19T00:16:16;17.98;;;2.88;;
81382;SDS011;70834;37.534;-122.308;2023-11-19T00:18:37;16.00;;;2.67;;
81382;SDS011;70834;37.534;-122.308;2023-11-19T00:20:58;18.90;;;2.80;;
81382;SDS011;70834;37.534;-122.308;2023-11-19T00:23:20;13.95;;;2.38;;
81382;SDS011;70834;37.534;-122.308;2023-11-19T00:25:43;16.77;;;3.03;;
81382;SDS011;70834;37.534;-122.308;2023-11-19T00:28:04;13.18;;;2.55;;
81382;SDS011;70834;37.534;-122.308;2023-11-19T00:30:26;22.75;;;2.88;;
81382;SDS011;70834;37.534;-122.308;2023-11-19T00:32:47;15.68;;;2.90;;
81382;SDS011;70834;37.534;-122.308;2023-11-19T00:35:09;15.82;;;3.38;;
81382;SDS011;70834;37.534;-122.308;2023-11-19T00:37:30;13.85;;;3.00;;
81382;SDS011;70834;37.534;-122.308;2023-11-19T00:39:52;14.70;;;2.40;;
81382;SDS011;70834;37.534;-122.308;2023-11-19T00:42:13;17.15;;;3.20;;
81382;SDS011;70834;37.534;-122.308;2023-11-19T00:44:34;12.65;;;2.67;;
81382;SDS011;70834;37.534;-122.308;2023-11-19T00:46:56;13.95;;;2.28;;
81382;SDS011;70834;37.534;-122.308;2023-11-19T00:49:18;17.30;;;3.85;;
81382;SDS011;70834;37.534;-122.308;2023-11-19T00:51:40;13.43;;;3.58;;
81382;SDS011;70834;37.534;-122.308;2023-11-19T00:54:01;18.80;;;3.25;;
81382;SDS011;70834;37.534;-122.308;2023-11-19T00:56:22;12.52;;;2.95;;
81382;SDS011;70834;37.534;-122.308;2023-11-19T00:58:44;19.58;;;3.47;;
81382;SDS011;70834;37.534;-122.308;2023-11-19T01:01:06;17.70;;;3.40;;
81382;SDS011;70834;37.534;-122.308;2023-11-19T01:03:27;17.15;;;4.03;;
81382;SDS011;70834;37.534;-122.308;2023-11-19T01:05:48;15.32;;;3.10;;
81382;SDS011;70834;37.534;-122.308;2023-11-19T01:08:10;17.27;;;3.80;;
81382;SDS011;70834;37.534;-122.308;2023-11-19T01:10:32;16.05;;;3.50;;
81382;SDS011;70834;37.534;-122.308;2023-11-19T01:12:54;15.00;;;3.53;;
81382;SDS011;70834;37.534;-122.308;2023-11-19T01:15:15;15.43;;;3.10;;
81382;SDS011;70834;37.534;-122.308;2023-11-19T01:17:38;17.45;;;3.63;;
81382;SDS011;70834;37.534;-122.308;2023-11-19T01:20:00;15.80;;;2.95;;
81382;SDS011;70834;37.534;-122.308;2023-11-19T01:22:22;20.55;;;5.25;;
81382;SDS011;70834;37.534;-122.308;2023-11-19T01:24:43;15.02;;;2.90;;
81382;SDS011;70834;37.534;-122.308;2023-11-19T01:27:05;15.73;;;2.80;;
81382;SDS011;70834;37.534;-122.308;2023-11-19T01:29:26;24.15;;;3.60;;
81382;SDS011;70834;37.534;-122.308;2023-11-19T01:31:48;14.50;;;2.65;;
81382;SDS011;70834;37.534;-122.308;2023-11-19T01:34:11;13.43;;;2.85;;
81382;SDS011;70834;37.534;-122.308;2023-11-19T01:36:32;11.77;;;2.67;;
81382;SDS011;70834;37.534;-122.308;2023-11-19T01:38:54;13.75;;;3.25;;
81382;SDS011;70834;37.534;-122.308;2023-11-19T01:41:15;18.73;;;3.30;;
81382;SDS011;70834;37.534;-122.308;2023-11-19T01:43:37;17.95;;;3.75;;
81382;SDS011;70834;37.534;-122.308;2023-11-19T01:46:04;13.50;;;3.67;;
81382;SDS011;70834;37.534;-122.308;2023-11-19T01:48:32;15.25;;;3.53;;
81382;SDS011;70834;37.534;-122.308;2023-11-19T01:50:56;15.68;;;4.15;;
81382;SDS011;70834;37.534;-122.308;2023-11-19T01:53:18;17.58;;;4.90;;
81382;SDS011;70834;37.534;-122.308;2023-11-19T01:55:40;18.98;;;5.15;;
81382;SDS011;70834;37.534;-122.308;2023-11-19T01:58:01;20.83;;;5.65;;
81382;SDS011;70834;37.534;-122.308;2023-11-19T02:00:23;24.52;;;5.13;;
81382;SDS011;70834;37.534;-122.308;2023-11-19T02:02:46;28.63;;;6.40;;
81382;SDS011;70834;37.534;-122.308;2023-11-19T02:05:09;27.50;;;5.30;;
81382;SDS011;70834;37.534;-122.308;2023-11-19T02:07:31;21.05;;;5.10;;
81382;SDS011;70834;37.534;-122.308;2023-11-19T02:09:53;18.27;;;5.13;;
81382;SDS011;70834;37.534;-122.308;2023-11-19T02:12:14;22.92;;;5.50;;
81382;SDS011;70834;37.534;-122.308;2023-11-19T02:14:35;22.33;;;4.72;;
81382;SDS011;70834;37.534;-122.308;2023-11-19T02:16:57;19.55;;;5.93;;
81382;SDS011;70834;37.534;-122.308;2023-11-19T02:19:19;18.80;;;5.07;;
81382;SDS011;70834;37.534;-122.308;2023-11-19T02:21:41;20.13;;;4.43;;
81382;SDS011;70834;37.534;-122.308;2023-11-19T02:24:03;18.63;;;4.15;;
81382;SDS011;70834;37.534;-122.308;2023-11-19T02:26:33;15.85;;;4.15;;
81382;SDS011;70834;37.534;-122.308;2023-11-19T02:29:00;17.95;;;3.40;;
81382;SDS011;70834;37.534;-122.308;2023-11-19T02:31:23;15.27;;;3.03;;
81382;SDS011;70834;37.534;-122.308;2023-11-19T02:33:44;16.85;;;3.50;;
81382;SDS011;70834;37.534;-122.308;2023-11-19T02:36:06;18.88;;;2.67;;
81382;SDS011;70834;37.534;-122.308;2023-11-19T02:38:28;15.65;;;3.40;;
81382;SDS011;70834;37.534;-122.308;2023-11-19T02:40:51;18.20;;;3.85;;
81382;SDS011;70834;37.534;-122.308;2023-11-19T02:43:12;17.10;;;2.70;;
81382;SDS011;70834;37.534;-122.308;2023-11-19T02:45:33;16.50;;;2.90;;
81382;SDS011;70834;37.534;-122.308;2023-11-19T02:47:56;15.50;;;2.95;;
81382;SDS011;70834;37.534;-122.308;2023-11-19T02:50:18;18.48;;;3.47;;
81382;SDS011;70834;37.534;-122.308;2023-11-19T02:52:45;20.80;;;3.92;;
81382;SDS011;70834;37.534;-122.308;2023-11-19T02:55:06;21.75;;;3.53;;
81382;SDS011;70834;37.534;-122.308;2023-11-19T02:57:33;16.13;;;3.38;;
81382;SDS011;70834;37.534;-122.308;2023-11-19T02:59:54;23.55;;;3.65;;
81382;SDS011;70834;37.534;-122.308;2023-11-19T03:02:16;14.40;;;3.80;;
81382;SDS011;70834;37.534;-122.308;2023-11-19T03:04:38;19.90;;;3.42;;
81382;SDS011;70834;37.534;-122.308;2023-11-19T03:07:04;19.77;;;3.10;;
81382;SDS011;70834;37.534;-122.308;2023-11-19T03:09:25;17.10;;;3.20;;
81382;SDS011;70834;37.534;-122.308;2023-11-19T03:11:47;23.48;;;4.25;;
81382;SDS011;70834;37.534;-122.308;2023-11-19T03:14:08;17.83;;;3.40;;
81382;SDS011;70834;37.534;-122.308;2023-11-19T03:16:29;19.40;;;3.78;;
81382;SDS011;70834;37.534;-122.308;2023-11-19T03:18:51;17.95;;;3.63;;
81382;SDS011;70834;37.534;-122.308;2023-11-19T03:21:12;17.20;;;3.05;;
81382;SDS011;70834;37.534;-122.308;2023-11-19T03:23:34;17.52;;;2.90;;
81382;SDS011;70834;37.534;-122.308;2023-11-19T03:25:56;19.98;;;3.53;;
81382;SDS011;70834;37.534;-122.308;2023-11-19T03:28:17;23.60;;;4.22;;
81382;SDS011;70834;37.534;-122.308;2023-11-19T03:30:39;20.60;;;5.55;;
81382;SDS011;70834;37.534;-122.308;2023-11-19T03:33:00;21.92;;;3.35;;
81382;SDS011;70834;37.534;-122.308;2023-11-19T03:35:22;30.23;;;5.72;;
81382;SDS011;70834;37.534;-122.308;2023-11-19T03:37:43;23.00;;;3.80;;
81382;SDS011;70834;37.534;-122.308;2023-11-19T03:40:05;29.38;;;4.63;;
81382;SDS011;70834;37.534;-122.308;2023-11-19T03:42:27;16.35;;;3.55;;
81382;SDS011;70834;37.534;-122.308;2023-11-19T03:44:52;14.93;;;3.22;;
81382;SDS011;70834;37.534;-122.308;2023-11-19T03:47:14;18.58;;;3.53;;
81382;SDS011;70834;37.534;-122.308;2023-11-19T03:49:35;17.40;;;3.33;;
81382;SDS011;70834;37.534;-122.308;2023-11-19T03:51:57;14.13;;;3.08;;
81382;SDS011;70834;37.534;-122.308;2023-11-19T03:54:18;20.60;;;3.65;;
81382;SDS011;70834;37.534;-122.308;2023-11-19T03:56:41;22.80;;;3.92;;
81382;SDS011;70834;37.534;-122.308;2023-11-19T03:59:03;16.23;;;3.03;;
81382;SDS011;70834;37.534;-122.308;2023-11-19T04:01:24;14.05;;;3.17;;
81382;SDS011;70834;37.534;-122.308;2023-11-19T04:03:45;16.83;;;3.53;;
81382;SDS011;70834;37.534;-122.308;2023-11-19T04:06:07;19.80;;;3.55;;
81382;SDS011;70834;37.534;-122.308;2023-11-19T04:08:28;19.13;;;3.42;;
81382;SDS011;70834;37.534;-122.308;2023-11-19T04:10:50;22.90;;;3.53;;
81382;SDS011;70834;37.534;-122.308;2023-11-19T04:13:11;16.38;;;3.55;;
81382;SDS011;70834;37.534;-122.308;2023-11-19T04:15:33;17.73;;;3.28;;
81382;SDS011;70834;37.534;-122.308;2023-11-19T04:17:54;17.60;;;4.80;;
81382;SDS011;70834;37.534;-122.308;2023-11-19T04:20:16;23.08;;;4.00;;
81382;SDS011;70834;37.534;-122.308;2023-11-19T04:22:37;26.77;;;4.38;;
81382;SDS011;70834;37.534;-122.308;2023-11-19T04:24:58;18.05;;;3.90;;
81382;SDS011;70834;37.534;-122.308;2023-11-19T04:27:20;12.70;;;3.42;;
81382;SDS011;70834;37.534;-122.308;2023-11-19T04:29:44;22.13;;;3.70;;
81382;SDS011;70834;37.534;-122.308;2023-11-19T04:32:07;14.50;;;2.83;;
81382;SDS011;70834;37.534;-122.308;2023-11-19T04:34:29;18.08;;;3.58;;
81382;SDS011;70834;37.534;-122.308;2023-11-19T04:36:50;20.75;;;3.63;;
81382;SDS011;70834;37.534;-122.308;2023-11-19T04:39:12;21.90;;;3.58;;
81382;SDS011;70834;37.534;-122.308;2023-11-19T04:41:35;13.38;;;3.03;;
81382;SDS011;70834;37.534;-122.308;2023-11-19T04:43:57;20.00;;;4.07;;
81382;SDS011;70834;37.534;-122.308;2023-11-19T04:46:18;18.35;;;3.47;;
81382;SDS011;70834;37.534;-122.308;2023-11-19T04:48:40;13.23;;;3.50;;
81382;SDS011;70834;37.534;-122.308;2023-11-19T04:51:04;21.60;;;5.32;;
81382;SDS011;70834;37.534;-122.308;2023-11-19T04:53:26;25.35;;;5.50;;
81382;SDS011;70834;37.534;-122.308;2023-11-19T04:55:47;20.88;;;3.65;;
81382;SDS011;70834;37.534;-122.308;2023-11-19T04:58:09;24.58;;;3.42;;
81382;SDS011;70834;37.534;-122.308;2023-11-19T05:00:30;21.45;;;3.08;;
81382;SDS011;70834;37.534;-122.308;2023-11-19T05:02:51;21.02;;;3.22;;
81382;SDS011;70834;37.534;-122.308;2023-11-19T05:05:16;21.92;;;4.50;;
81382;SDS011;70834;37.534;-122.308;2023-11-19T05:07:41;24.88;;;3.47;;
81382;SDS011;70834;37.534;-122.308;2023-11-19T05:10:02;20.90;;;3.75;;
81382;SDS011;70834;37.534;-122.308;2023-11-19T05:12:24;23.65;;;3.30;;
81382;SDS011;70834;37.534;-122.308;2023-11-19T05:14:46;22.80;;;3.20;;
81382;SDS011;70834;37.534;-122.308;2023-11-19T05:17:10;27.77;;;4.60;;
81382;SDS011;70834;37.534;-122.308;2023-11-19T05:19:31;38.90;;;5.30;;
81382;SDS011;70834;37.534;-122.308;2023-11-19T05:21:53;36.22;;;4.85;;
81382;SDS011;70834;37.534;-122.308;2023-11-19T05:24:14;37.25;;;4.95;;
81382;SDS011;70834;37.534;-122.308;2023-11-19T05:26:35;32.90;;;5.43;;
81382;SDS011;70834;37.534;-122.308;2023-11-19T05:28:57;41.33;;;5.93;;
81382;SDS011;70834;37.534;-122.308;2023-11-19T05:31:18;43.20;;;6.75;;
81382;SDS011;70834;37.534;-122.308;2023-11-19T05:33:40;49.85;;;7.63;;
81382;SDS011;70834;37.534;-122.308;2023-11-19T05:36:01;40.28;;;6.05;;
81382;SDS011;70834;37.534;-122.308;2023-11-19T05:38:24;43.25;;;5.78;;
81382;SDS011;70834;37.534;-122.308;2023-11-19T05:40:47;43.58;;;6.20;;
81382;SDS011;70834;37.534;-122.308;2023-11-19T05:43:09;47.80;;;7.13;;
81382;SDS011;70834;37.534;-122.308;2023-11-19T05:45:31;39.30;;;5.15;;
81382;SDS011;70834;37.534;-122.308;2023-11-19T05:47:56;38.30;;;5.55;;
81382;SDS011;70834;37.534;-122.308;2023-11-19T05:50:17;54.05;;;6.80;;
81382;SDS011;70834;37.534;-122.308;2023-11-19T05:52:39;40.65;;;6.95;;
81382;SDS011;70834;37.534;-122.308;2023-11-19T05:55:01;40.38;;;5.50;;
81382;SDS011;70834;37.534;-122.308;2023-11-19T05:57:29;38.13;;;6.97;;
81382;SDS011;70834;37.534;-122.308;2023-11-19T05:59:51;46.63;;;7.28;;
81382;SDS011;70834;37.534;-122.308;2023-11-19T06:02:14;52.83;;;7.13;;
81382;SDS011;70834;37.534;-122.308;2023-11-19T06:04:35;57.80;;;6.28;;
81382;SDS011;70834;37.534;-122.308;2023-11-19T06:06:56;48.70;;;7.38;;
81382;SDS011;70834;37.534;-122.308;2023-11-19T06:09:18;53.95;;;6.93;;
81382;SDS011;70834;37.534;-122.308;2023-11-19T06:11:39;50.75;;;7.55;;
81382;SDS011;70834;37.534;-122.308;2023-11-19T06:14:01;56.22;;;8.38;;
81382;SDS011;70834;37.534;-122.308;2023-11-19T06:16:25;45.53;;;6.57;;
81382;SDS011;70834;37.534;-122.308;2023-11-19T06:18:47;43.42;;;5.80;;
81382;SDS011;70834;37.534;-122.308;2023-11-19T06:21:08;52.55;;;6.78;;
81382;SDS011;70834;37.534;-122.308;2023-11-19T06:23:29;44.92;;;6.05;;
81382;SDS011;70834;37.534;-122.308;2023-11-19T06:25:51;45.78;;;6.28;;
81382;SDS011;70834;37.534;-122.308;2023-11-19T06:28:13;44.72;;;5.95;;
81382;SDS011;70834;37.534;-122.308;2023-11-19T06:30:34;45.00;;;6.82;;
81382;SDS011;70834;37.534;-122.308;2023-11-19T06:32:56;38.72;;;5.72;;
81382;SDS011;70834;37.534;-122.308;2023-11-19T06:35:17;52.60;;;5.38;;
81382;SDS011;70834;37.534;-122.308;2023-11-19T06:37:39;49.40;;;6.97;;
81382;SDS011;70834;37.534;-122.308;2023-11-19T06:40:02;47.80;;;6.40;;
81382;SDS011;70834;37.534;-122.308;2023-11-19T06:42:25;43.28;;;5.10;;
81382;SDS011;70834;37.534;-122.308;2023-11-19T06:44:46;31.38;;;5.13;;
81382;SDS011;70834;37.534;-122.308;2023-11-19T06:47:10;38.25;;;5.43;;
81382;SDS011;70834;37.534;-122.308;2023-11-19T06:49:32;40.70;;;5.35;;
81382;SDS011;70834;37.534;-122.308;2023-11-19T06:51:53;35.38;;;5.75;;
81382;SDS011;70834;37.534;-122.308;2023-11-19T06:54:14;44.42;;;5.25;;
81382;SDS011;70834;37.534;-122.308;2023-11-19T06:56:36;46.47;;;5.38;;
81382;SDS011;70834;37.534;-122.308;2023-11-19T06:58:58;36.75;;;5.70;;
81382;SDS011;70834;37.534;-122.308;2023-11-19T07:01:19;41.00;;;5.63;;
81382;SDS011;70834;37.534;-122.308;2023-11-19T07:03:47;40.70;;;5.68;;
81382;SDS011;70834;37.534;-122.308;2023-11-19T07:06:08;48.35;;;6.70;;
81382;SDS011;70834;37.534;-122.308;2023-11-19T07:08:31;50.53;;;6.80;;
81382;SDS011;70834;37.534;-122.308;2023-11-19T07:10:52;44.60;;;5.40;;
81382;SDS011;70834;37.534;-122.308;2023-11-19T07:13:14;42.67;;;5.82;;
81382;SDS011;70834;37.534;-122.308;2023-11-19T07:15:35;46.00;;;5.78;;
81382;SDS011;70834;37.534;-122.308;2023-11-19T07:17:58;37.80;;;4.88;;
81382;SDS011;70834;37.534;-122.308;2023-11-19T07:20:19;51.05;;;6.43;;
81382;SDS011;70834;37.534;-122.308;2023-11-19T07:22:44;39.85;;;6.30;;
81382;SDS011;70834;37.534;-122.308;2023-11-19T07:25:09;42.35;;;6.00;;
81382;SDS011;70834;37.534;-122.308;2023-11-19T07:27:30;42.47;;;5.70;;
81382;SDS011;70834;37.534;-122.308;2023-11-19T07:29:51;41.15;;;6.90;;
81382;SDS011;70834;37.534;-122.308;2023-11-19T07:32:13;41.80;;;5.72;;
81382;SDS011;70834;37.534;-122.308;2023-11-19T07:34:34;50.47;;;6.43;;
81382;SDS011;70834;37.534;-122.308;2023-11-19T07:36:55;40.42;;;5.85;;
81382;SDS011;70834;37.534;-122.308;2023-11-19T07:39:22;41.85;;;6.47;;
81382;SDS011;70834;37.534;-122.308;2023-11-19T07:41:44;43.22;;;6.18;;
81382;SDS011;70834;37.534;-122.308;2023-11-19T07:44:05;38.88;;;5.88;;
81382;SDS011;70834;37.534;-122.308;2023-11-19T07:46:26;42.63;;;6.05;;
81382;SDS011;70834;37.534;-122.308;2023-11-19T07:48:48;41.00;;;5.25;;
81382;SDS011;70834;37.534;-122.308;2023-11-19T07:51:10;48.28;;;6.32;;
81382;SDS011;70834;37.534;-122.308;2023-11-19T07:53:33;38.38;;;7.03;;
81382;SDS011;70834;37.534;-122.308;2023-11-19T07:55:54;41.72;;;5.57;;
81382;SDS011;70834;37.534;-122.308;2023-11-19T07:58:15;42.88;;;5.97;;
81382;SDS011;70834;37.534;-122.308;2023-11-19T08:00:37;36.30;;;5.70;;
81382;SDS011;70834;37.534;-122.308;2023-11-19T08:03:00;43.35;;;6.65;;
81382;SDS011;70834;37.534;-122.308;2023-11-19T08:05:22;48.05;;;6.93;;
81382;SDS011;70834;37.534;-122.308;2023-11-19T08:07:44;50.30;;;6.78;;
81382;SDS011;70834;37.534;-122.308;2023-11-19T08:10:06;44.30;;;6.43;;
81382;SDS011;70834;37.534;-122.308;2023-11-19T08:12:31;38.08;;;5.25;;
81382;SDS011;70834;37.534;-122.308;2023-11-19T08:14:52;41.50;;;6.15;;
81382;SDS011;70834;37.534;-122.308;2023-11-19T08:17:14;44.22;;;5.28;;
81382;SDS011;70834;37.534;-122.308;2023-11-19T08:19:36;39.13;;;5.28;;
81382;SDS011;70834;37.534;-122.308;2023-11-19T08:21:57;39.00;;;5.40;;
81382;SDS011;70834;37.534;-122.308;2023-11-19T08:24:19;44.03;;;5.18;;
81382;SDS011;70834;37.534;-122.308;2023-11-19T08:26:40;38.22;;;4.65;;
81382;SDS011;70834;37.534;-122.308;2023-11-19T08:29:02;37.10;;;5.57;;
81382;SDS011;70834;37.534;-122.308;2023-11-19T08:31:24;40.63;;;5.25;;
81382;SDS011;70834;37.534;-122.308;2023-11-19T08:33:46;39.28;;;5.25;;
81382;SDS011;70834;37.534;-122.308;2023-11-19T08:36:07;37.72;;;6.25;;
81382;SDS011;70834;37.534;-122.308;2023-11-19T08:38:29;44.13;;;6.22;;
81382;SDS011;70834;37.534;-122.308;2023-11-19T08:40:50;43.95;;;5.35;;
81382;SDS011;70834;37.534;-122.308;2023-11-19T08:43:12;35.78;;;4.53;;
81382;SDS011;70834;37.534;-122.308;2023-11-19T08:45:33;41.28;;;5.03;;
81382;SDS011;70834;37.534;-122.308;2023-11-19T08:47:56;47.38;;;5.57;;
81382;SDS011;70834;37.534;-122.308;2023-11-19T08:50:18;38.08;;;4.90;;
81382;SDS011;70834;37.534;-122.308;2023-11-19T08:52:39;50.72;;;6.22;;
81382;SDS011;70834;37.534;-122.308;2023-11-19T08:55:01;39.25;;;5.88;;
81382;SDS011;70834;37.534;-122.308;2023-11-19T08:57:23;38.08;;;4.80;;
81382;SDS011;70834;37.534;-122.308;2023-11-19T08:59:44;42.15;;;5.30;;
81382;SDS011;70834;37.534;-122.308;2023-11-19T09:02:06;58.47;;;6.88;;
81382;SDS011;70834;37.534;-122.308;2023-11-19T09:04:28;39.78;;;5.65;;
81382;SDS011;70834;37.534;-122.308;2023-11-19T09:06:49;47.20;;;5.55;;
81382;SDS011;70834;37.534;-122.308;2023-11-19T09:09:11;32.70;;;6.03;;
81382;SDS011;70834;37.534;-122.308;2023-11-19T09:11:32;45.78;;;4.65;;
81382;SDS011;70834;37.534;-122.308;2023-11-19T09:13:53;34.15;;;4.95;;
81382;SDS011;70834;37.534;-122.308;2023-11-19T09:16:15;43.75;;;5.53;;
81382;SDS011;70834;37.534;-122.308;2023-11-19T09:18:36;41.78;;;5.82;;
81382;SDS011;70834;37.534;-122.308;2023-11-19T09:20:58;42.85;;;5.63;;
81382;SDS011;70834;37.534;-122.308;2023-11-19T09:23:19;37.17;;;4.80;;
81382;SDS011;70834;37.534;-122.308;2023-11-19T09:25:41;43.85;;;5.38;;
81382;SDS011;70834;37.534;-122.308;2023-11-19T09:28:03;47.03;;;6.43;;
81382;SDS011;70834;37.534;-122.308;2023-11-19T09:30:24;49.47;;;6.40;;
81382;SDS011;70834;37.534;-122.308;2023-11-19T09:32:45;53.08;;;6.30;;
81382;SDS011;70834;37.534;-122.308;2023-11-19T09:35:07;48.58;;;6.05;;
81382;SDS011;70834;37.534;-122.308;2023-11-19T09:37:29;36.95;;;5.85;;
81382;SDS011;70834;37.534;-122.308;2023-11-19T09:39:50;41.42;;;5.72;;
81382;SDS011;70834;37.534;-122.308;2023-11-19T09:42:12;40.03;;;5.03;;
81382;SDS011;70834;37.534;-122.308;2023-11-19T09:44:33;46.15;;;6.20;;
81382;SDS011;70834;37.534;-122.308;2023-11-19T09:46:55;45.70;;;5.10;;
81382;SDS011;70834;37.534;-122.308;2023-11-19T09:49:19;54.35;;;5.90;;
81382;SDS011;70834;37.534;-122.308;2023-11-19T09:51:44;38.05;;;6.20;;
81382;SDS011;70834;37.534;-122.308;2023-11-19T09:54:05;38.22;;;5.40;;
81382;SDS011;70834;37.534;-122.308;2023-11-19T09:56:28;39.80;;;5.30;;
81382;SDS011;70834;37.534;-122.308;2023-11-19T09:58:50;45.97;;;5.97;;
81382;SDS011;70834;37.534;-122.308;2023-11-19T10:01:11;48.05;;;5.63;;
81382;SDS011;70834;37.534;-122.308;2023-11-19T10:03:33;33.40;;;5.63;;
81382;SDS011;70834;37.534;-122.308;2023-11-19T10:05:58;36.78;;;6.82;;
81382;SDS011;70834;37.534;-122.308;2023-11-19T10:08:21;36.88;;;5.07;;
81382;SDS011;70834;37.534;-122.308;2023-11-19T10:10:43;43.72;;;5.97;;
81382;SDS011;70834;37.534;-122.308;2023-11-19T10:13:04;28.65;;;5.43;;
81382;SDS011;70834;37.534;-122.308;2023-11-19T10:15:28;38.75;;;5.75;;
81382;SDS011;70834;37.534;-122.308;2023-11-19T10:17:58;41.78;;;5.80;;
81382;SDS011;70834;37.534;-122.308;2023-11-19T10:20:20;39.15;;;5.57;;
81382;SDS011;70834;37.534;-122.308;2023-11-19T10:22:41;41.45;;;6.10;;
81382;SDS011;70834;37.534;-122.308;2023-11-19T10:25:02;35.65;;;5.55;;
81382;SDS011;70834;37.534;-122.308;2023-11-19T10:27:25;33.28;;;5.68;;
81382;SDS011;70834;37.534;-122.308;2023-11-19T10:29:46;34.90;;;5.00;;
81382;SDS011;70834;37.534;-122.308;2023-11-19T10:32:08;38.30;;;5.80;;
81382;SDS011;70834;37.534;-122.308;2023-11-19T10:34:30;46.78;;;5.40;;
81382;SDS011;70834;37.534;-122.308;2023-11-19T10:36:51;39.92;;;4.93;;
81382;SDS011;70834;37.534;-122.308;2023-11-19T10:39:13;44.03;;;7.13;;
81382;SDS011;70834;37.534;-122.308;2023-11-19T10:41:34;44.90;;;5.80;;
81382;SDS011;70834;37.534;-122.308;2023-11-19T10:43:56;34.40;;;4.63;;
81382;SDS011;70834;37.534;-122.308;2023-11-19T10:46:18;34.88;;;4.93;;
81382;SDS011;70834;37.534;-122.308;2023-11-19T10:48:43;29.85;;;5.43;;
81382;SDS011;70834;37.534;-122.308;2023-11-19T10:51:05;51.10;;;5.65;;
81382;SDS011;70834;37.534;-122.308;2023-11-19T10:53:28;32.03;;;4.95;;
81382;SDS011;70834;37.534;-122.308;2023-11-19T10:55:50;35.35;;;4.80;;
81382;SDS011;70834;37.534;-122.308;2023-11-19T10:58:15;31.95;;;4.20;;
81382;SDS011;70834;37.534;-122.308;2023-11-19T11:00:47;35.42;;;6.10;;
81382;SDS011;70834;37.534;-122.308;2023-11-19T11:03:19;31.00;;;4.45;;
81382;SDS011;70834;37.534;-122.308;2023-11-19T11:05:43;40.25;;;5.28;;
81382;SDS011;70834;37.534;-122.308;2023-11-19T11:08:07;40.50;;;4.20;;
81382;SDS011;70834;37.534;-122.308;2023-11-19T11:10:29;35.67;;;4.38;;
81382;SDS011;70834;37.534;-122.308;2023-11-19T11:12:56;28.08;;;4.68;;
81382;SDS011;70834;37.534;-122.308;2023-11-19T11:15:27;37.92;;;4.75;;
81382;SDS011;70834;37.534;-122.308;2023-11-19T11:17:51;34.50;;;5.07;;
81382;SDS011;70834;37.534;-122.308;2023-11-19T11:20:17;32.17;;;4.32;;
81382;SDS011;70834;37.534;-122.308;2023-11-19T11:22:44;31.55;;;4.43;;
81382;SDS011;70834;37.534;-122.308;2023-11-19T11:30:46;41.83;;;5.22;;
81382;SDS011;70834;37.534;-122.308;2023-11-19T11:38:41;36.28;;;5.05;;
81382;SDS011;70834;37.534;-122.308;2023-11-19T11:41:15;32.20;;;4.03;;
81382;SDS011;70834;37.534;-122.308;2023-11-19T11:43:48;33.53;;;4.27;;
81382;SDS011;70834;37.534;-122.308;2023-11-19T11:48:55;28.02;;;4.38;;
81382;SDS011;70834;37.534;-122.308;2023-11-19T11:51:29;30.87;;;4.53;;
81382;SDS011;70834;37.534;-122.308;2023-11-19T11:59:42;34.95;;;4.63;;
81382;SDS011;70834;37.534;-122.308;2023-11-19T12:02:07;40.40;;;5.35;;
81382;SDS011;70834;37.534;-122.308;2023-11-19T12:04:29;38.80;;;4.43;;
81382;SDS011;70834;37.534;-122.308;2023-11-19T12:07:06;26.83;;;4.22;;
81382;SDS011;70834;37.534;-122.308;2023-11-19T12:09:32;41.13;;;5.05;;
81382;SDS011;70834;37.534;-122.308;2023-11-19T12:12:06;39.67;;;4.75;;
81382;SDS011;70834;37.534;-122.308;2023-11-19T12:19:55;43.53;;;4.53;;
81382;SDS011;70834;37.534;-122.308;2023-11-19T12:22:17;26.48;;;3.80;;
81382;SDS011;70834;37.534;-122.308;2023-11-19T12:24:39;34.90;;;4.30;;
81382;SDS011;70834;37.534;-122.308;2023-11-19T12:27:01;23.08;;;3.97;;
81382;SDS011;70834;37.534;-122.308;2023-11-19T12:29:22;27.50;;;3.47;;
81382;SDS011;70834;37.534;-122.308;2023-11-19T12:31:44;35.28;;;4.63;;
81382;SDS011;70834;37.534;-122.308;2023-11-19T12:34:15;28.10;;;3.60;;
81382;SDS011;70834;37.534;-122.308;2023-11-19T12:36:36;32.13;;;3.35;;
81382;SDS011;70834;37.534;-122.308;2023-11-19T12:38:58;28.85;;;3.90;;
81382;SDS011;70834;37.534;-122.308;2023-11-19T12:41:20;30.50;;;4.10;;
81382;SDS011;70834;37.534;-122.308;2023-11-19T12:43:43;29.25;;;4.15;;
81382;SDS011;70834;37.534;-122.308;2023-11-19T12:46:20;23.02;;;3.63;;
81382;SDS011;70834;37.534;-122.308;2023-11-19T12:48:43;26.20;;;3.63;;
81382;SDS011;70834;37.534;-122.308;2023-11-19T12:51:04;39.78;;;3.65;;
81382;SDS011;70834;37.534;-122.308;2023-11-19T12:53:26;25.75;;;3.60;;
81382;SDS011;70834;37.534;-122.308;2023-11-19T12:55:49;29.02;;;3.30;;
81382;SDS011;70834;37.534;-122.308;2023-11-19T12:58:27;25.58;;;4.25;;
81382;SDS011;70834;37.534;-122.308;2023-11-19T13:00:52;26.98;;;3.83;;
81382;SDS011;70834;37.534;-122.308;2023-11-19T13:03:30;21.80;;;3.03;;
81382;SDS011;70834;37.534;-122.308;2023-11-19T13:06:00;27.23;;;4.13;;
81382;SDS011;70834;37.534;-122.308;2023-11-19T13:08:24;26.67;;;3.53;;
81382;SDS011;70834;37.534;-122.308;2023-11-19T13:13:13;25.20;;;3.42;;
81382;SDS011;70834;37.534;-122.308;2023-11-19T13:15:34;25.25;;;3.40;;
81382;SDS011;70834;37.534;-122.308;2023-11-19T13:17:56;28.48;;;3.40;;
81382;SDS011;70834;37.534;-122.308;2023-11-19T13:20:17;20.70;;;2.67;;
81382;SDS011;70834;37.534;-122.308;2023-11-19T13:22:39;22.60;;;2.85;;
81382;SDS011;70834;37.534;-122.308;2023-11-19T13:25:21;31.88;;;3.65;;
81382;SDS011;70834;37.534;-122.308;2023-11-19T13:27:45;30.20;;;4.00;;
81382;SDS011;70834;37.534;-122.308;2023-11-19T13:30:07;36.28;;;4.28;;
81382;SDS011;70834;37.534;-122.308;2023-11-19T13:32:28;27.05;;;4.32;;
81382;SDS011;70834;37.534;-122.308;2023-11-19T13:34:50;32.22;;;5.38;;
81382;SDS011;70834;37.534;-122.308;2023-11-19T13:37:11;35.25;;;4.70;;
81382;SDS011;70834;37.534;-122.308;2023-11-19T13:39:33;35.40;;;4.72;;
81382;SDS011;70834;37.534;-122.308;2023-11-19T13:41:54;24.00;;;3.83;;
81382;SDS011;70834;37.534;-122.308;2023-11-19T13:44:16;27.67;;;3.78;;
81382;SDS011;70834;37.534;-122.308;2023-11-19T13:46:38;23.55;;;3.80;;
81382;SDS011;70834;37.534;-122.308;2023-11-19T13:49:00;35.08;;;4.25;;
81382;SDS011;70834;37.534;-122.308;2023-11-19T13:51:21;37.28;;;4.28;;
81382;SDS011;70834;37.534;-122.308;2023-11-19T13:53:42;25.77;;;3.67;;
81382;SDS011;70834;37.534;-122.308;2023-11-19T13:56:04;26.85;;;4.00;;
81382;SDS011;70834;37.534;-122.308;2023-11-19T13:58:26;27.17;;;3.67;;